Aérodrome :
LOGIN :

S'inscrire | Disclaimer

   EN    FR    IT 

 










Légende :    VFR   VFR Marginal   IFR   IFR Intensif   IFR Très Intensif
Visi : 
Plafond : 
>= 8 km
>= 3000ft
5 à 8 km
1000 à 3000 ft
1500m à 5 km
500 à 1000 ft
800 à 1500m
200 à 500 ft
< 800m
< 200 ft
Symboles :   Orages  Brouillard  Fortes neiges  Fortes précipitations  Vent > 20 kt
SIGMETs :   Divers  Orages  Givrage  Turbulence  Onde Orograph.  Cendres Volcan.







- Altitude de l'aérodrome : 93 ft
- Code IATA : XRY


LEJR - Jerez

DERNIER METAR :
  • 181900Z 17011KT 120V200 CAVOK 27/13 Q1016

METARs EXPIRÉS :
  • 181830Z 17011KT 120V200 CAVOK 28/12 Q1015
  • 181800Z 18012KT 140V220 CAVOK 29/12 Q1015
  • 181730Z 18013KT 140V210 CAVOK 30/12 Q1015
  • 181700Z 17013KT 140V240 CAVOK 31/13 Q1015
  • 181630Z 19008KT 140V230 CAVOK 30/12 Q1015

TAF TAF LEJR
Valide du 18 à 18h jusqu'au 19 à 18h UTC


181700Z 1818/1918 17013KT CAVOK TX34/1915Z TN17/1906Z
PROB30
TEMPO 1819/1823 17016G26KT
BECMG 1900/1903 VRB03KT
BECMG 1909/1912 14012KT
Pas de NOTAMs connus pour ce terrain.



MET'MAP, la Météo Aéronautique d'un coup d'oeil ! - Copyright ORBIFLY Décembre 2007 - Disclaimer

ORBIFLY MET'MAP TEAM :

Programmation & Développement : Alexandra Zaïnal
Conception & Développement : Baudouin d'Aumeries
Co-Programmation & Développement : Marc-Olivier Méhu
Soutien technique & logistique : Manuel Goepfert

Contact : metmap@orbifly.com




SOURCES & CREDITS :

   NOAA